Terminal Aerodrome Forecast
Issued by NWS

Home | Current Version | Previous Version | Text Only | Print | Product List | Glossary On
Versions: 1 2 3 4 5 6 7 8 9 10 11 12 13 14 15 16 17 18 19 20 21 22 23 24
000
FTUS46 KSGX 010314 AAA
TAFCRQ
TAF AMD
KCRQ 010314Z 0103/0124 VRB04KT P6SM SCT017
      TEMPO 0103/0105 BKN016
     FM010500 VRB04KT P6SM OVC016
     FM011730 VRB06KT P6SM SCT018
     FM011900 24010KT P6SM FEW180=

USA.gov is the U.S. government's official web portal to all federal, state and local government web resources and services.